sensor_id;sensor_type;location;lat;lon;timestamp;pressure;altitude;pressure_sealevel;temperature;humidity
82887;BME280;72660;51.258;-2.200;2023-09-07T14:13:48;100778.18;;;22.44;56.40
82887;BME280;72660;51.258;-2.200;2023-09-07T14:16:11;100772.45;;;26.06;45.23
82887;BME280;72660;51.258;-2.200;2023-09-07T14:18:37;100767.82;;;29.03;39.29
82887;BME280;72660;51.258;-2.200;2023-09-07T14:21:02;100767.04;;;30.63;35.59
82887;BME280;72660;51.258;-2.200;2023-09-07T14:23:28;100772.21;;;32.08;33.41
82887;BME280;72660;51.258;-2.200;2023-09-07T14:25:53;100772.85;;;32.94;32.31
82887;BME280;72660;51.258;-2.200;2023-09-07T14:28:18;100773.21;;;33.48;31.68
82887;BME280;72660;51.258;-2.200;2023-09-07T14:30:43;100772.80;;;34.04;30.17
82887;BME280;72660;51.258;-2.200;2023-09-07T14:33:08;100774.05;;;33.97;29.72
82887;BME280;72660;51.258;-2.200;2023-09-07T14:35:33;100779.79;;;34.76;28.58
82887;BME280;72660;51.258;-2.200;2023-09-07T14:37:58;100776.95;;;34.50;28.59
82887;BME280;72660;51.258;-2.200;2023-09-07T14:40:23;100774.34;;;34.31;29.19
82887;BME280;72660;51.258;-2.200;2023-09-07T14:42:49;100769.52;;;34.37;28.72
82887;BME280;72660;51.258;-2.200;2023-09-07T14:45:14;100765.63;;;34.29;28.77
82887;BME280;72660;51.258;-2.200;2023-09-07T14:47:39;100761.09;;;34.63;28.21
82887;BME280;72660;51.258;-2.200;2023-09-07T14:50:05;100760.70;;;34.72;28.14
82887;BME280;72660;51.258;-2.200;2023-09-07T14:52:29;100758.69;;;34.93;28.38
82887;BME280;72660;51.258;-2.200;2023-09-07T14:54:55;100763.85;;;34.44;29.14
82887;BME280;72660;51.258;-2.200;2023-09-07T14:57:20;100773.07;;;34.51;28.96
82887;BME280;72660;51.258;-2.200;2023-09-07T14:59:45;100773.27;;;34.13;29.24
82887;BME280;72660;51.258;-2.200;2023-09-07T15:02:11;100769.72;;;34.00;29.63
82887;BME280;72660;51.258;-2.200;2023-09-07T15:04:36;100768.14;;;33.63;29.31
82887;BME280;72660;51.258;-2.200;2023-09-07T15:07:02;100768.96;;;33.97;28.95
82887;BME280;72660;51.258;-2.200;2023-09-07T15:09:26;100768.21;;;34.05;29.02
82887;BME280;72660;51.258;-2.200;2023-09-07T15:11:52;100762.02;;;33.92;28.78
82887;BME280;72660;51.258;-2.200;2023-09-07T15:14:17;100761.32;;;34.55;28.54
82887;BME280;72660;51.258;-2.200;2023-09-07T15:16:43;100763.21;;;33.77;29.14
82887;BME280;72660;51.258;-2.200;2023-09-07T15:19:08;100760.42;;;33.81;29.11
82887;BME280;72660;51.258;-2.200;2023-09-07T15:21:33;100758.49;;;33.74;29.67
82887;BME280;72660;51.258;-2.200;2023-09-07T15:23:59;100759.74;;;33.80;29.71
82887;BME280;72660;51.258;-2.200;2023-09-07T15:26:24;100762.72;;;34.05;29.84
82887;BME280;72660;51.258;-2.200;2023-09-07T15:28:49;100764.33;;;34.10;29.79
82887;BME280;72660;51.258;-2.200;2023-09-07T15:31:14;100768.15;;;34.04;29.93
82887;BME280;72660;51.258;-2.200;2023-09-07T15:33:40;100769.40;;;34.35;30.22
82887;BME280;72660;51.258;-2.200;2023-09-07T15:36:06;100765.84;;;33.93;29.69
82887;BME280;72660;51.258;-2.200;2023-09-07T15:38:31;100766.93;;;34.11;30.18
82887;BME280;72660;51.258;-2.200;2023-09-07T15:40:56;100768.31;;;33.91;30.73
82887;BME280;72660;51.258;-2.200;2023-09-07T15:43:21;100767.69;;;33.74;31.36
82887;BME280;72660;51.258;-2.200;2023-09-07T15:45:46;100766.82;;;33.68;30.82
82887;BME280;72660;51.258;-2.200;2023-09-07T15:48:12;100766.55;;;33.58;30.71
82887;BME280;72660;51.258;-2.200;2023-09-07T15:50:38;100764.62;;;33.65;31.03
82887;BME280;72660;51.258;-2.200;2023-09-07T15:53:03;100758.20;;;32.83;31.21
82887;BME280;72660;51.258;-2.200;2023-09-07T15:55:28;100753.55;;;33.11;31.34
82887;BME280;72660;51.258;-2.200;2023-09-07T15:57:53;100748.07;;;33.30;31.01
82887;BME280;72660;51.258;-2.200;2023-09-07T16:00:18;100743.34;;;33.48;31.25
82887;BME280;72660;51.258;-2.200;2023-09-07T16:02:44;100742.23;;;33.16;30.90
82887;BME280;72660;51.258;-2.200;2023-09-07T16:05:09;100751.00;;;33.37;31.15
82887;BME280;72660;51.258;-2.200;2023-09-07T16:07:34;100750.68;;;33.17;31.22
82887;BME280;72660;51.258;-2.200;2023-09-07T16:10:00;100752.88;;;33.31;31.93
82887;BME280;72660;51.258;-2.200;2023-09-07T16:12:25;100750.91;;;32.90;32.05
82887;BME280;72660;51.258;-2.200;2023-09-07T16:14:50;100754.00;;;32.83;32.46
82887;BME280;72660;51.258;-2.200;2023-09-07T16:17:16;100751.54;;;32.80;32.36
82887;BME280;72660;51.258;-2.200;2023-09-07T16:19:41;100745.21;;;32.54;32.29
82887;BME280;72660;51.258;-2.200;2023-09-07T16:22:07;100741.70;;;32.59;32.28
82887;BME280;72660;51.258;-2.200;2023-09-07T16:24:31;100743.35;;;32.39;32.46
82887;BME280;72660;51.258;-2.200;2023-09-07T16:26:56;100741.64;;;32.24;32.87
82887;BME280;72660;51.258;-2.200;2023-09-07T16:29:21;100740.61;;;32.78;32.07
82887;BME280;72660;51.258;-2.200;2023-09-07T16:31:47;100740.27;;;32.62;32.47
82887;BME280;72660;51.258;-2.200;2023-09-07T16:34:12;100742.21;;;32.56;32.68
82887;BME280;72660;51.258;-2.200;2023-09-07T16:36:37;100743.55;;;32.25;33.08
82887;BME280;72660;51.258;-2.200;2023-09-07T16:39:03;100746.41;;;32.10;33.90
82887;BME280;72660;51.258;-2.200;2023-09-07T16:41:28;100750.83;;;31.75;34.12
82887;BME280;72660;51.258;-2.200;2023-09-07T16:43:53;100750.51;;;32.00;34.37
82887;BME280;72660;51.258;-2.200;2023-09-07T16:46:18;100751.41;;;31.84;34.55
82887;BME280;72660;51.258;-2.200;2023-09-07T16:48:43;100744.56;;;31.72;34.70
82887;BME280;72660;51.258;-2.200;2023-09-07T16:51:09;100739.02;;;31.30;35.59
82887;BME280;72660;51.258;-2.200;2023-09-07T16:53:34;100738.97;;;31.66;35.58
82887;BME280;72660;51.258;-2.200;2023-09-07T16:55:59;100744.45;;;31.70;35.76
82887;BME280;72660;51.258;-2.200;2023-09-07T16:58:25;100747.75;;;31.47;35.89
82887;BME280;72660;51.258;-2.200;2023-09-07T17:00:50;100747.59;;;31.32;36.19
82887;BME280;72660;51.258;-2.200;2023-09-07T17:03:15;100751.73;;;31.48;35.52
82887;BME280;72660;51.258;-2.200;2023-09-07T17:05:40;100755.38;;;30.95;35.97
82887;BME280;72660;51.258;-2.200;2023-09-07T17:08:05;100756.94;;;31.04;35.91
82887;BME280;72660;51.258;-2.200;2023-09-07T17:10:31;100750.81;;;31.23;35.41
82887;BME280;72660;51.258;-2.200;2023-09-07T17:12:57;100750.60;;;31.09;35.74
82887;BME280;72660;51.258;-2.200;2023-09-07T17:15:22;100750.63;;;30.94;36.11
82887;BME280;72660;51.258;-2.200;2023-09-07T17:17:47;100750.73;;;30.62;36.65
82887;BME280;72660;51.258;-2.200;2023-09-07T17:20:12;100750.97;;;30.70;35.99
82887;BME280;72660;51.258;-2.200;2023-09-07T17:22:37;100748.19;;;30.83;36.13
82887;BME280;72660;51.258;-2.200;2023-09-07T17:25:04;100748.37;;;30.35;35.83
82887;BME280;72660;51.258;-2.200;2023-09-07T17:27:28;100755.60;;;30.44;36.13
82887;BME280;72660;51.258;-2.200;2023-09-07T17:29:53;100756.11;;;30.89;35.57
82887;BME280;72660;51.258;-2.200;2023-09-07T17:32:19;100755.97;;;29.99;36.42
82887;BME280;72660;51.258;-2.200;2023-09-07T17:34:44;100762.22;;;30.32;36.10
82887;BME280;72660;51.258;-2.200;2023-09-07T17:37:09;100761.49;;;30.54;36.29
82887;BME280;72660;51.258;-2.200;2023-09-07T17:39:35;100760.48;;;30.29;36.63
82887;BME280;72660;51.258;-2.200;2023-09-07T17:42:01;100760.87;;;30.10;36.84
82887;BME280;72660;51.258;-2.200;2023-09-07T17:44:26;100762.95;;;29.97;36.95
82887;BME280;72660;51.258;-2.200;2023-09-07T17:46:51;100761.38;;;29.82;37.29
82887;BME280;72660;51.258;-2.200;2023-09-07T17:49:16;100759.95;;;30.03;37.43
82887;BME280;72660;51.258;-2.200;2023-09-07T17:51:42;100760.80;;;29.78;37.52
82887;BME280;72660;51.258;-2.200;2023-09-07T17:54:07;100764.61;;;29.68;37.82
82887;BME280;72660;51.258;-2.200;2023-09-07T17:56:32;100769.76;;;29.85;37.94
82887;BME280;72660;51.258;-2.200;2023-09-07T17:58:58;100774.33;;;29.42;37.85
82887;BME280;72660;51.258;-2.200;2023-09-07T18:01:23;100770.86;;;29.79;38.16
82887;BME280;72660;51.258;-2.200;2023-09-07T18:03:48;100764.52;;;29.75;37.87
82887;BME280;72660;51.258;-2.200;2023-09-07T18:06:13;100763.78;;;29.63;38.49
82887;BME280;72660;51.258;-2.200;2023-09-07T18:08:39;100767.71;;;29.35;38.76
82887;BME280;72660;51.258;-2.200;2023-09-07T18:11:05;100770.68;;;29.29;39.42
82887;BME280;72660;51.258;-2.200;2023-09-07T18:13:29;100771.68;;;28.97;39.32
82887;BME280;72660;51.258;-2.200;2023-09-07T18:15:55;100779.41;;;29.11;39.33
82887;BME280;72660;51.258;-2.200;2023-09-07T18:18:20;100782.69;;;29.00;39.45
82887;BME280;72660;51.258;-2.200;2023-09-07T18:20:45;100785.64;;;28.93;40.05
82887;BME280;72660;51.258;-2.200;2023-09-07T18:23:10;100790.17;;;29.12;39.72
82887;BME280;72660;51.258;-2.200;2023-09-07T18:25:36;100792.78;;;28.70;39.76
82887;BME280;72660;51.258;-2.200;2023-09-07T18:28:01;100790.22;;;28.44;39.99
82887;BME280;72660;51.258;-2.200;2023-09-07T18:30:27;100786.05;;;28.59;40.10
82887;BME280;72660;51.258;-2.200;2023-09-07T18:32:51;100781.65;;;28.20;40.35
82887;BME280;72660;51.258;-2.200;2023-09-07T18:35:17;100778.59;;;28.17;40.46
82887;BME280;72660;51.258;-2.200;2023-09-07T18:37:41;100779.97;;;28.38;40.35
82887;BME280;72660;51.258;-2.200;2023-09-07T18:40:08;100781.99;;;28.31;40.66
82887;BME280;72660;51.258;-2.200;2023-09-07T18:42:32;100784.10;;;28.50;40.91
82887;BME280;72660;51.258;-2.200;2023-09-07T18:44:58;100781.51;;;28.29;41.71
82887;BME280;72660;51.258;-2.200;2023-09-07T18:47:23;100771.23;;;28.13;41.88
82887;BME280;72660;51.258;-2.200;2023-09-07T18:49:48;100772.20;;;27.75;42.08
82887;BME280;72660;51.258;-2.200;2023-09-07T18:52:13;100773.19;;;27.60;42.38
82887;BME280;72660;51.258;-2.200;2023-09-07T18:54:39;100777.91;;;27.88;41.53
82887;BME280;72660;51.258;-2.200;2023-09-07T18:57:05;100780.25;;;28.16;41.00
82887;BME280;72660;51.258;-2.200;2023-09-07T18:59:29;100783.27;;;27.70;41.07
82887;BME280;72660;51.258;-2.200;2023-09-07T19:01:55;100785.86;;;28.02;41.17
82887;BME280;72660;51.258;-2.200;2023-09-07T19:04:20;100789.86;;;27.69;41.49
82887;BME280;72660;51.258;-2.200;2023-09-07T19:06:46;100790.42;;;27.58;41.79
82887;BME280;72660;51.258;-2.200;2023-09-07T19:09:11;100784.87;;;27.54;41.82
82887;BME280;72660;51.258;-2.200;2023-09-07T19:11:36;100777.45;;;27.68;41.90
82887;BME280;72660;51.258;-2.200;2023-09-07T19:14:03;100776.71;;;27.42;41.70
82887;BME280;72660;51.258;-2.200;2023-09-07T19:16:27;100785.15;;;27.28;41.92
82887;BME280;72660;51.258;-2.200;2023-09-07T19:18:52;100798.44;;;27.34;42.73
82887;BME280;72660;51.258;-2.200;2023-09-07T19:21:17;100806.48;;;26.94;43.98
82887;BME280;72660;51.258;-2.200;2023-09-07T19:23:43;100803.65;;;26.50;43.93
82887;BME280;72660;51.258;-2.200;2023-09-07T19:28:33;100794.87;;;26.75;43.40
82887;BME280;72660;51.258;-2.200;2023-09-07T19:30:58;100794.46;;;26.42;43.38
82887;BME280;72660;51.258;-2.200;2023-09-07T19:33:24;100796.20;;;26.49;43.60
82887;BME280;72660;51.258;-2.200;2023-09-07T19:35:49;100796.24;;;26.69;43.14
82887;BME280;72660;51.258;-2.200;2023-09-07T19:38:14;100797.14;;;26.19;43.72
82887;BME280;72660;51.258;-2.200;2023-09-07T19:40:40;100801.60;;;26.45;43.61
82887;BME280;72660;51.258;-2.200;2023-09-07T19:43:05;100802.11;;;26.42;43.57
82887;BME280;72660;51.258;-2.200;2023-09-07T19:45:30;100807.22;;;26.36;43.52
82887;BME280;72660;51.258;-2.200;2023-09-07T19:47:56;100807.30;;;26.82;43.33
82887;BME280;72660;51.258;-2.200;2023-09-07T19:50:22;100809.22;;;26.28;43.06
82887;BME280;72660;51.258;-2.200;2023-09-07T19:52:47;100811.95;;;26.01;42.78
82887;BME280;72660;51.258;-2.200;2023-09-07T19:55:12;100816.12;;;26.29;42.44
82887;BME280;72660;51.258;-2.200;2023-09-07T19:57:38;100822.28;;;26.12;42.56
82887;BME280;72660;51.258;-2.200;2023-09-07T20:00:03;100825.96;;;26.31;42.07
82887;BME280;72660;51.258;-2.200;2023-09-07T20:02:28;100824.31;;;26.62;42.11
82887;BME280;72660;51.258;-2.200;2023-09-07T20:04:53;100821.96;;;26.70;41.77
82887;BME280;72660;51.258;-2.200;2023-09-07T20:07:19;100827.64;;;26.43;42.57
82887;BME280;72660;51.258;-2.200;2023-09-07T20:09:44;100834.51;;;25.95;42.65
82887;BME280;72660;51.258;-2.200;2023-09-07T20:12:10;100838.34;;;25.83;43.55
82887;BME280;72660;51.258;-2.200;2023-09-07T20:14:36;100835.25;;;25.76;43.44
82887;BME280;72660;51.258;-2.200;2023-09-07T20:17:02;100837.83;;;26.10;43.15
82887;BME280;72660;51.258;-2.200;2023-09-07T20:21:53;100831.72;;;26.04;42.22
82887;BME280;72660;51.258;-2.200;2023-09-07T20:24:18;100833.15;;;25.89;42.29
82887;BME280;72660;51.258;-2.200;2023-09-07T20:26:44;100836.59;;;25.89;42.50
82887;BME280;72660;51.258;-2.200;2023-09-07T20:29:09;100834.74;;;26.20;42.28
82887;BME280;72660;51.258;-2.200;2023-09-07T20:31:35;100837.22;;;25.83;41.68
82887;BME280;72660;51.258;-2.200;2023-09-07T20:34:00;100839.12;;;25.87;41.98
82887;BME280;72660;51.258;-2.200;2023-09-07T20:36:25;100836.49;;;25.99;41.21
82887;BME280;72660;51.258;-2.200;2023-09-07T20:38:51;100839.59;;;25.76;41.92
82887;BME280;72660;51.258;-2.200;2023-09-07T20:41:16;100840.64;;;25.91;42.41
82887;BME280;72660;51.258;-2.200;2023-09-07T20:43:41;100849.02;;;26.26;42.89
82887;BME280;72660;51.258;-2.200;2023-09-07T20:46:07;100850.61;;;25.74;42.90
82887;BME280;72660;51.258;-2.200;2023-09-07T20:48:33;100851.33;;;25.45;43.61
82887;BME280;72660;51.258;-2.200;2023-09-07T20:50:58;100848.59;;;25.75;43.33
82887;BME280;72660;51.258;-2.200;2023-09-07T20:53:23;100848.64;;;25.68;42.62
82887;BME280;72660;51.258;-2.200;2023-09-07T20:55:48;100851.25;;;25.84;42.27
82887;BME280;72660;51.258;-2.200;2023-09-07T20:58:13;100852.33;;;25.56;42.99
82887;BME280;72660;51.258;-2.200;2023-09-07T21:00:38;100853.37;;;25.44;42.51
82887;BME280;72660;51.258;-2.200;2023-09-07T21:03:04;100851.16;;;25.60;42.34
82887;BME280;72660;51.258;-2.200;2023-09-07T21:05:29;100850.68;;;25.66;42.11
82887;BME280;72660;51.258;-2.200;2023-09-07T21:07:54;100852.11;;;25.44;42.71
82887;BME280;72660;51.258;-2.200;2023-09-07T21:10:19;100851.13;;;25.25;43.12
82887;BME280;72660;51.258;-2.200;2023-09-07T21:12:45;100849.84;;;25.09;42.99
82887;BME280;72660;51.258;-2.200;2023-09-07T21:15:11;100845.89;;;24.94;43.02
82887;BME280;72660;51.258;-2.200;2023-09-07T21:17:37;100842.05;;;25.24;42.46
82887;BME280;72660;51.258;-2.200;2023-09-07T21:20:02;100836.91;;;25.14;41.57
82887;BME280;72660;51.258;-2.200;2023-09-07T21:22:27;100837.76;;;25.18;41.49
82887;BME280;72660;51.258;-2.200;2023-09-07T21:24:52;100838.32;;;25.13;41.75
82887;BME280;72660;51.258;-2.200;2023-09-07T21:27:17;100842.39;;;25.13;41.73
82887;BME280;72660;51.258;-2.200;2023-09-07T21:29:42;100844.33;;;25.26;41.47
82887;BME280;72660;51.258;-2.200;2023-09-07T21:32:07;100847.92;;;25.26;41.72
82887;BME280;72660;51.258;-2.200;2023-09-07T21:34:33;100848.63;;;25.14;41.56
82887;BME280;72660;51.258;-2.200;2023-09-07T21:36:58;100850.04;;;25.42;41.70
82887;BME280;72660;51.258;-2.200;2023-09-07T21:39:24;100845.77;;;25.49;41.49
82887;BME280;72660;51.258;-2.200;2023-09-07T21:41:50;100842.21;;;25.40;41.60
82887;BME280;72660;51.258;-2.200;2023-09-07T21:44:14;100842.68;;;25.10;41.77
82887;BME280;72660;51.258;-2.200;2023-09-07T21:46:40;100848.67;;;25.37;41.85
82887;BME280;72660;51.258;-2.200;2023-09-07T21:49:05;100848.00;;;25.04;42.01
82887;BME280;72660;51.258;-2.200;2023-09-07T21:51:30;100852.58;;;25.34;41.67
82887;BME280;72660;51.258;-2.200;2023-09-07T21:53:56;100851.23;;;25.13;41.71
82887;BME280;72660;51.258;-2.200;2023-09-07T21:56:20;100848.99;;;25.30;41.76
82887;BME280;72660;51.258;-2.200;2023-09-07T21:58:46;100848.22;;;24.90;41.85
82887;BME280;72660;51.258;-2.200;2023-09-07T22:01:11;100851.59;;;24.81;42.13
82887;BME280;72660;51.258;-2.200;2023-09-07T22:03:36;100851.68;;;24.84;42.08
82887;BME280;72660;51.258;-2.200;2023-09-07T22:06:02;100848.74;;;24.77;42.33
82887;BME280;72660;51.258;-2.200;2023-09-07T22:08:27;100840.55;;;25.36;41.88
82887;BME280;72660;51.258;-2.200;2023-09-07T22:10:52;100842.00;;;24.95;42.38
82887;BME280;72660;51.258;-2.200;2023-09-07T22:13:24;100841.47;;;24.91;41.88
82887;BME280;72660;51.258;-2.200;2023-09-07T22:15:43;100843.36;;;25.14;42.80
82887;BME280;72660;51.258;-2.200;2023-09-07T22:18:08;100841.48;;;24.35;42.75
82887;BME280;72660;51.258;-2.200;2023-09-07T22:20:33;100843.03;;;24.57;41.33
82887;BME280;72660;51.258;-2.200;2023-09-07T22:22:59;100847.72;;;24.83;41.26
82887;BME280;72660;51.258;-2.200;2023-09-07T22:25:24;100851.09;;;24.68;43.35
82887;BME280;72660;51.258;-2.200;2023-09-07T22:27:49;100851.72;;;25.00;43.90
82887;BME280;72660;51.258;-2.200;2023-09-07T22:30:15;100849.43;;;24.93;43.89
82887;BME280;72660;51.258;-2.200;2023-09-07T22:32:40;100844.28;;;24.43;43.90
82887;BME280;72660;51.258;-2.200;2023-09-07T22:35:06;100840.87;;;24.60;44.02
82887;BME280;72660;51.258;-2.200;2023-09-07T22:37:31;100838.24;;;24.35;43.69
82887;BME280;72660;51.258;-2.200;2023-09-07T22:39:56;100837.21;;;24.64;42.93
82887;BME280;72660;51.258;-2.200;2023-09-07T22:42:22;100838.00;;;24.61;43.89
82887;BME280;72660;51.258;-2.200;2023-09-07T22:44:47;100839.20;;;24.52;43.77
82887;BME280;72660;51.258;-2.200;2023-09-07T22:47:12;100843.01;;;24.47;43.89
82887;BME280;72660;51.258;-2.200;2023-09-07T22:49:37;100847.05;;;24.58;43.91
82887;BME280;72660;51.258;-2.200;2023-09-07T22:52:03;100848.69;;;23.96;44.25
82887;BME280;72660;51.258;-2.200;2023-09-07T22:54:29;100849.54;;;24.38;44.37
82887;BME280;72660;51.258;-2.200;2023-09-07T22:56:54;100847.82;;;24.27;44.48
82887;BME280;72660;51.258;-2.200;2023-09-07T22:59:19;100849.46;;;24.07;44.15
82887;BME280;72660;51.258;-2.200;2023-09-07T23:01:44;100847.53;;;24.17;44.27
82887;BME280;72660;51.258;-2.200;2023-09-07T23:04:10;100846.76;;;24.27;41.89
82887;BME280;72660;51.258;-2.200;2023-09-07T23:06:35;100848.91;;;24.31;42.99
82887;BME280;72660;51.258;-2.200;2023-09-07T23:09:01;100849.95;;;24.50;42.22
82887;BME280;72660;51.258;-2.200;2023-09-07T23:11:26;100852.74;;;24.61;41.01
82887;BME280;72660;51.258;-2.200;2023-09-07T23:13:52;100853.24;;;24.61;42.65
82887;BME280;72660;51.258;-2.200;2023-09-07T23:16:17;100852.00;;;24.26;43.16
82887;BME280;72660;51.258;-2.200;2023-09-07T23:18:42;100856.55;;;24.47;43.75
82887;BME280;72660;51.258;-2.200;2023-09-07T23:21:09;100861.20;;;24.29;44.48
82887;BME280;72660;51.258;-2.200;2023-09-07T23:23:33;100861.36;;;24.36;43.85
82887;BME280;72660;51.258;-2.200;2023-09-07T23:25:59;100860.79;;;24.35;44.31
82887;BME280;72660;51.258;-2.200;2023-09-07T23:28:25;100860.03;;;23.98;44.99
82887;BME280;72660;51.258;-2.200;2023-09-07T23:30:51;100863.60;;;24.36;44.50
82887;BME280;72660;51.258;-2.200;2023-09-07T23:33:15;100862.99;;;23.83;44.74
82887;BME280;72660;51.258;-2.200;2023-09-07T23:35:40;100861.38;;;24.10;44.56
82887;BME280;72660;51.258;-2.200;2023-09-07T23:38:05;100861.51;;;24.09;43.90
82887;BME280;72660;51.258;-2.200;2023-09-07T23:40:31;100858.96;;;24.20;43.33
82887;BME280;72660;51.258;-2.200;2023-09-07T23:42:56;100856.49;;;24.09;44.33
82887;BME280;72660;51.258;-2.200;2023-09-07T23:45:22;100854.51;;;24.02;44.58
82887;BME280;72660;51.258;-2.200;2023-09-07T23:47:47;100848.73;;;23.48;45.27
82887;BME280;72660;51.258;-2.200;2023-09-07T23:50:12;100847.78;;;24.00;43.88
82887;BME280;72660;51.258;-2.200;2023-09-07T23:52:37;100851.36;;;24.21;43.60
82887;BME280;72660;51.258;-2.200;2023-09-07T23:55:02;100850.49;;;24.13;43.90
82887;BME280;72660;51.258;-2.200;2023-09-07T23:57:27;100850.38;;;23.85;43.69
82887;BME280;72660;51.258;-2.200;2023-09-07T23:59:52;100850.69;;;24.07;43.73
